sensor_id;sensor_type;location;lat;lon;timestamp;P1;durP1;ratioP1;P2;durP2;ratioP2
17725;SDS011;8983;53.156;17.960;2023-02-15T00:02:04;133.63;;;43.57;;
17725;SDS011;8983;53.156;17.960;2023-02-15T00:04:32;143.70;;;46.50;;
17725;SDS011;8983;53.156;17.960;2023-02-15T00:07:16;148.40;;;44.97;;
17725;SDS011;8983;53.156;17.960;2023-02-15T00:09:46;154.67;;;46.50;;
17725;SDS011;8983;53.156;17.960;2023-02-15T00:12:14;138.20;;;47.47;;
17725;SDS011;8983;53.156;17.960;2023-02-15T00:14:43;148.57;;;48.73;;
17725;SDS011;8983;53.156;17.960;2023-02-15T00:17:13;170.30;;;48.63;;
17725;SDS011;8983;53.156;17.960;2023-02-15T00:19:41;152.90;;;48.50;;
17725;SDS011;8983;53.156;17.960;2023-02-15T00:22:09;136.50;;;44.87;;
17725;SDS011;8983;53.156;17.960;2023-02-15T00:24:37;132.17;;;43.53;;
17725;SDS011;8983;53.156;17.960;2023-02-15T00:27:05;127.53;;;45.50;;
17725;SDS011;8983;53.156;17.960;2023-02-15T00:29:33;182.57;;;62.10;;
17725;SDS011;8983;53.156;17.960;2023-02-15T00:32:01;175.47;;;60.63;;
17725;SDS011;8983;53.156;17.960;2023-02-15T00:34:30;159.27;;;56.63;;
17725;SDS011;8983;53.156;17.960;2023-02-15T00:36:58;154.63;;;55.03;;
17725;SDS011;8983;53.156;17.960;2023-02-15T00:39:26;155.20;;;53.73;;
17725;SDS011;8983;53.156;17.960;2023-02-15T00:41:55;117.17;;;44.73;;
17725;SDS011;8983;53.156;17.960;2023-02-15T00:44:23;142.63;;;51.93;;
17725;SDS011;8983;53.156;17.960;2023-02-15T00:46:51;144.17;;;48.80;;
17725;SDS011;8983;53.156;17.960;2023-02-15T00:49:19;148.40;;;52.00;;
17725;SDS011;8983;53.156;17.960;2023-02-15T00:51:48;146.67;;;47.43;;
17725;SDS011;8983;53.156;17.960;2023-02-15T00:54:16;137.50;;;48.43;;
17725;SDS011;8983;53.156;17.960;2023-02-15T00:56:44;135.03;;;46.40;;
17725;SDS011;8983;53.156;17.960;2023-02-15T00:59:12;143.93;;;47.43;;
17725;SDS011;8983;53.156;17.960;2023-02-15T01:01:40;131.10;;;49.63;;
17725;SDS011;8983;53.156;17.960;2023-02-15T01:04:08;149.40;;;54.47;;
17725;SDS011;8983;53.156;17.960;2023-02-15T01:06:36;135.77;;;51.43;;
17725;SDS011;8983;53.156;17.960;2023-02-15T01:09:05;125.27;;;48.43;;
17725;SDS011;8983;53.156;17.960;2023-02-15T01:11:33;140.80;;;49.07;;
17725;SDS011;8983;53.156;17.960;2023-02-15T01:14:01;137.43;;;50.17;;
17725;SDS011;8983;53.156;17.960;2023-02-15T01:16:31;125.50;;;48.13;;
17725;SDS011;8983;53.156;17.960;2023-02-15T01:18:59;149.67;;;50.83;;
17725;SDS011;8983;53.156;17.960;2023-02-15T01:21:28;125.40;;;47.87;;
17725;SDS011;8983;53.156;17.960;2023-02-15T01:23:57;136.50;;;48.77;;
17725;SDS011;8983;53.156;17.960;2023-02-15T01:26:27;136.73;;;47.87;;
17725;SDS011;8983;53.156;17.960;2023-02-15T01:28:55;138.10;;;50.03;;
17725;SDS011;8983;53.156;17.960;2023-02-15T01:31:23;128.17;;;48.53;;
17725;SDS011;8983;53.156;17.960;2023-02-15T01:33:51;138.83;;;48.27;;
17725;SDS011;8983;53.156;17.960;2023-02-15T01:36:19;129.67;;;49.83;;
17725;SDS011;8983;53.156;17.960;2023-02-15T01:38:47;129.80;;;48.23;;
17725;SDS011;8983;53.156;17.960;2023-02-15T01:41:15;120.40;;;47.83;;
17725;SDS011;8983;53.156;17.960;2023-02-15T01:43:55;140.03;;;49.13;;
17725;SDS011;8983;53.156;17.960;2023-02-15T01:46:26;123.40;;;46.97;;
17725;SDS011;8983;53.156;17.960;2023-02-15T01:49:00;126.73;;;42.97;;
17725;SDS011;8983;53.156;17.960;2023-02-15T01:51:32;120.50;;;44.03;;
17725;SDS011;8983;53.156;17.960;2023-02-15T01:54:03;105.90;;;40.17;;
17725;SDS011;8983;53.156;17.960;2023-02-15T01:56:35;110.97;;;39.90;;
17725;SDS011;8983;53.156;17.960;2023-02-15T01:59:07;117.57;;;40.93;;
17725;SDS011;8983;53.156;17.960;2023-02-15T02:01:38;99.77;;;39.50;;
17725;SDS011;8983;53.156;17.960;2023-02-15T02:04:08;111.30;;;41.73;;
17725;SDS011;8983;53.156;17.960;2023-02-15T02:06:40;101.80;;;39.60;;
17725;SDS011;8983;53.156;17.960;2023-02-15T02:09:08;120.60;;;43.17;;
17725;SDS011;8983;53.156;17.960;2023-02-15T02:11:37;120.07;;;44.07;;
17725;SDS011;8983;53.156;17.960;2023-02-15T02:14:09;121.00;;;42.37;;
17725;SDS011;8983;53.156;17.960;2023-02-15T02:16:38;110.47;;;40.23;;
17725;SDS011;8983;53.156;17.960;2023-02-15T02:22:28;116.70;;;41.83;;
17725;SDS011;8983;53.156;17.960;2023-02-15T02:25:27;115.60;;;41.57;;
17725;SDS011;8983;53.156;17.960;2023-02-15T02:28:10;109.90;;;40.53;;
17725;SDS011;8983;53.156;17.960;2023-02-15T02:31:02;106.67;;;39.77;;
17725;SDS011;8983;53.156;17.960;2023-02-15T02:33:49;109.13;;;40.17;;
17725;SDS011;8983;53.156;17.960;2023-02-15T02:36:30;111.43;;;41.33;;
17725;SDS011;8983;53.156;17.960;2023-02-15T02:39:12;99.43;;;40.73;;
17725;SDS011;8983;53.156;17.960;2023-02-15T02:41:50;106.27;;;40.50;;
17725;SDS011;8983;53.156;17.960;2023-02-15T02:44:26;106.50;;;40.23;;
17725;SDS011;8983;53.156;17.960;2023-02-15T02:47:02;106.50;;;43.50;;
17725;SDS011;8983;53.156;17.960;2023-02-15T02:49:37;116.87;;;43.43;;
17725;SDS011;8983;53.156;17.960;2023-02-15T02:52:33;118.83;;;43.63;;
17725;SDS011;8983;53.156;17.960;2023-02-15T02:55:06;126.00;;;46.83;;
17725;SDS011;8983;53.156;17.960;2023-02-15T02:57:37;126.07;;;46.57;;
17725;SDS011;8983;53.156;17.960;2023-02-15T03:00:10;107.67;;;44.23;;
17725;SDS011;8983;53.156;17.960;2023-02-15T03:02:42;112.80;;;44.17;;
17725;SDS011;8983;53.156;17.960;2023-02-15T03:05:15;112.47;;;43.87;;
17725;SDS011;8983;53.156;17.960;2023-02-15T03:07:49;116.73;;;43.87;;
17725;SDS011;8983;53.156;17.960;2023-02-15T03:10:19;117.43;;;43.73;;
17725;SDS011;8983;53.156;17.960;2023-02-15T03:12:50;105.53;;;41.03;;
17725;SDS011;8983;53.156;17.960;2023-02-15T03:15:20;121.50;;;44.07;;
17725;SDS011;8983;53.156;17.960;2023-02-15T03:17:51;103.70;;;42.20;;
17725;SDS011;8983;53.156;17.960;2023-02-15T03:20:25;118.30;;;45.43;;
17725;SDS011;8983;53.156;17.960;2023-02-15T03:22:57;112.33;;;42.70;;
17725;SDS011;8983;53.156;17.960;2023-02-15T03:25:30;104.50;;;42.27;;
17725;SDS011;8983;53.156;17.960;2023-02-15T03:28:01;113.27;;;43.53;;
17725;SDS011;8983;53.156;17.960;2023-02-15T03:30:32;122.17;;;44.03;;
17725;SDS011;8983;53.156;17.960;2023-02-15T03:33:03;131.40;;;47.50;;
17725;SDS011;8983;53.156;17.960;2023-02-15T03:35:36;115.70;;;44.87;;
17725;SDS011;8983;53.156;17.960;2023-02-15T03:38:10;102.50;;;43.73;;
17725;SDS011;8983;53.156;17.960;2023-02-15T03:40:43;125.13;;;46.00;;
17725;SDS011;8983;53.156;17.960;2023-02-15T03:43:33;105.77;;;42.80;;
17725;SDS011;8983;53.156;17.960;2023-02-15T03:46:08;106.50;;;41.20;;
17725;SDS011;8983;53.156;17.960;2023-02-15T03:48:40;113.60;;;42.80;;
17725;SDS011;8983;53.156;17.960;2023-02-15T03:51:14;106.63;;;41.93;;
17725;SDS011;8983;53.156;17.960;2023-02-15T03:54:01;112.33;;;45.83;;
17725;SDS011;8983;53.156;17.960;2023-02-15T03:56:33;114.03;;;44.90;;
17725;SDS011;8983;53.156;17.960;2023-02-15T03:59:02;102.77;;;44.07;;
17725;SDS011;8983;53.156;17.960;2023-02-15T04:01:52;114.30;;;44.50;;
17725;SDS011;8983;53.156;17.960;2023-02-15T04:04:31;118.10;;;47.20;;
17725;SDS011;8983;53.156;17.960;2023-02-15T04:07:03;101.37;;;42.63;;
17725;SDS011;8983;53.156;17.960;2023-02-15T04:09:33;112.90;;;48.70;;
17725;SDS011;8983;53.156;17.960;2023-02-15T04:12:19;117.43;;;47.87;;
17725;SDS011;8983;53.156;17.960;2023-02-15T04:14:47;113.70;;;47.60;;
17725;SDS011;8983;53.156;17.960;2023-02-15T04:17:33;107.47;;;44.83;;
17725;SDS011;8983;53.156;17.960;2023-02-15T04:20:01;85.57;;;40.33;;
17725;SDS011;8983;53.156;17.960;2023-02-15T04:22:47;99.03;;;41.53;;
17725;SDS011;8983;53.156;17.960;2023-02-15T04:25:33;96.97;;;41.00;;
17725;SDS011;8983;53.156;17.960;2023-02-15T04:28:01;89.40;;;39.90;;
17725;SDS011;8983;53.156;17.960;2023-02-15T04:30:29;87.43;;;39.17;;
17725;SDS011;8983;53.156;17.960;2023-02-15T04:32:57;94.10;;;41.63;;
17725;SDS011;8983;53.156;17.960;2023-02-15T04:35:25;86.17;;;40.33;;
17725;SDS011;8983;53.156;17.960;2023-02-15T04:37:54;86.00;;;37.93;;
17725;SDS011;8983;53.156;17.960;2023-02-15T04:40:23;79.80;;;38.00;;
17725;SDS011;8983;53.156;17.960;2023-02-15T04:42:51;85.90;;;38.20;;
17725;SDS011;8983;53.156;17.960;2023-02-15T04:45:19;92.03;;;35.73;;
17725;SDS011;8983;53.156;17.960;2023-02-15T04:47:47;87.97;;;37.80;;
17725;SDS011;8983;53.156;17.960;2023-02-15T04:50:15;85.53;;;38.73;;
17725;SDS011;8983;53.156;17.960;2023-02-15T04:52:43;70.17;;;34.30;;
17725;SDS011;8983;53.156;17.960;2023-02-15T04:55:13;73.80;;;35.60;;
17725;SDS011;8983;53.156;17.960;2023-02-15T04:57:41;64.23;;;33.47;;
17725;SDS011;8983;53.156;17.960;2023-02-15T05:00:09;85.90;;;38.63;;
17725;SDS011;8983;53.156;17.960;2023-02-15T05:02:38;66.97;;;30.97;;
17725;SDS011;8983;53.156;17.960;2023-02-15T05:05:06;66.67;;;32.93;;
17725;SDS011;8983;53.156;17.960;2023-02-15T05:07:35;75.40;;;33.20;;
17725;SDS011;8983;53.156;17.960;2023-02-15T05:10:03;63.27;;;31.40;;
17725;SDS011;8983;53.156;17.960;2023-02-15T05:12:34;73.50;;;31.50;;
17725;SDS011;8983;53.156;17.960;2023-02-15T05:15:02;55.97;;;27.73;;
17725;SDS011;8983;53.156;17.960;2023-02-15T05:17:31;59.10;;;28.50;;
17725;SDS011;8983;53.156;17.960;2023-02-15T05:19:59;61.47;;;29.87;;
17725;SDS011;8983;53.156;17.960;2023-02-15T05:22:27;50.67;;;29.47;;
17725;SDS011;8983;53.156;17.960;2023-02-15T05:24:55;64.40;;;29.10;;
17725;SDS011;8983;53.156;17.960;2023-02-15T05:27:51;59.57;;;27.83;;
17725;SDS011;8983;53.156;17.960;2023-02-15T05:30:36;59.87;;;28.07;;
17725;SDS011;8983;53.156;17.960;2023-02-15T05:33:06;63.87;;;25.97;;
17725;SDS011;8983;53.156;17.960;2023-02-15T05:35:34;58.23;;;25.50;;
17725;SDS011;8983;53.156;17.960;2023-02-15T05:38:02;58.50;;;26.47;;
17725;SDS011;8983;53.156;17.960;2023-02-15T05:40:30;56.37;;;25.90;;
17725;SDS011;8983;53.156;17.960;2023-02-15T05:42:59;54.53;;;26.87;;
17725;SDS011;8983;53.156;17.960;2023-02-15T05:45:28;50.23;;;25.57;;
17725;SDS011;8983;53.156;17.960;2023-02-15T05:47:56;51.07;;;25.50;;
17725;SDS011;8983;53.156;17.960;2023-02-15T05:50:25;57.37;;;27.70;;
17725;SDS011;8983;53.156;17.960;2023-02-15T05:52:53;58.73;;;26.90;;
17725;SDS011;8983;53.156;17.960;2023-02-15T05:55:21;54.70;;;28.57;;
17725;SDS011;8983;53.156;17.960;2023-02-15T05:57:49;63.30;;;29.50;;
17725;SDS011;8983;53.156;17.960;2023-02-15T06:00:19;88.10;;;37.87;;
17725;SDS011;8983;53.156;17.960;2023-02-15T06:02:47;80.07;;;37.40;;
17725;SDS011;8983;53.156;17.960;2023-02-15T06:05:15;79.33;;;36.00;;
17725;SDS011;8983;53.156;17.960;2023-02-15T06:07:43;71.50;;;34.67;;
17725;SDS011;8983;53.156;17.960;2023-02-15T06:10:11;68.27;;;34.47;;
17725;SDS011;8983;53.156;17.960;2023-02-15T06:12:39;70.57;;;34.37;;
17725;SDS011;8983;53.156;17.960;2023-02-15T06:15:08;65.73;;;30.97;;
17725;SDS011;8983;53.156;17.960;2023-02-15T06:17:37;59.83;;;30.23;;
17725;SDS011;8983;53.156;17.960;2023-02-15T06:20:08;61.87;;;30.77;;
17725;SDS011;8983;53.156;17.960;2023-02-15T06:22:37;63.53;;;30.83;;
17725;SDS011;8983;53.156;17.960;2023-02-15T06:25:05;67.87;;;31.43;;
17725;SDS011;8983;53.156;17.960;2023-02-15T06:27:36;57.17;;;29.03;;
17725;SDS011;8983;53.156;17.960;2023-02-15T06:30:04;62.63;;;30.27;;
17725;SDS011;8983;53.156;17.960;2023-02-15T06:32:33;57.13;;;29.53;;
17725;SDS011;8983;53.156;17.960;2023-02-15T06:35:02;70.10;;;31.40;;
17725;SDS011;8983;53.156;17.960;2023-02-15T06:37:31;67.60;;;31.37;;
17725;SDS011;8983;53.156;17.960;2023-02-15T06:39:59;66.83;;;31.00;;
17725;SDS011;8983;53.156;17.960;2023-02-15T06:42:29;70.80;;;31.47;;
17725;SDS011;8983;53.156;17.960;2023-02-15T06:44:57;64.07;;;31.43;;
17725;SDS011;8983;53.156;17.960;2023-02-15T06:47:26;57.77;;;30.23;;
17725;SDS011;8983;53.156;17.960;2023-02-15T06:49:54;67.77;;;33.57;;
17725;SDS011;8983;53.156;17.960;2023-02-15T06:52:23;67.00;;;34.00;;
17725;SDS011;8983;53.156;17.960;2023-02-15T06:54:51;67.03;;;33.70;;
17725;SDS011;8983;53.156;17.960;2023-02-15T06:57:19;73.73;;;33.33;;
17725;SDS011;8983;53.156;17.960;2023-02-15T06:59:47;66.47;;;32.73;;
17725;SDS011;8983;53.156;17.960;2023-02-15T07:02:15;66.63;;;31.97;;
17725;SDS011;8983;53.156;17.960;2023-02-15T07:04:43;63.87;;;32.43;;
17725;SDS011;8983;53.156;17.960;2023-02-15T07:07:11;61.17;;;29.97;;
17725;SDS011;8983;53.156;17.960;2023-02-15T07:09:41;66.20;;;30.53;;
17725;SDS011;8983;53.156;17.960;2023-02-15T07:12:09;66.23;;;30.73;;
17725;SDS011;8983;53.156;17.960;2023-02-15T07:14:54;72.83;;;33.23;;
17725;SDS011;8983;53.156;17.960;2023-02-15T07:17:24;66.43;;;32.47;;
17725;SDS011;8983;53.156;17.960;2023-02-15T07:20:02;65.97;;;31.10;;
17725;SDS011;8983;53.156;17.960;2023-02-15T07:22:31;57.17;;;28.73;;
17725;SDS011;8983;53.156;17.960;2023-02-15T07:25:01;66.17;;;33.23;;
17725;SDS011;8983;53.156;17.960;2023-02-15T07:27:30;61.13;;;28.90;;
17725;SDS011;8983;53.156;17.960;2023-02-15T07:29:58;60.90;;;30.10;;
17725;SDS011;8983;53.156;17.960;2023-02-15T07:32:27;54.93;;;26.37;;
17725;SDS011;8983;53.156;17.960;2023-02-15T07:34:56;58.90;;;27.77;;
17725;SDS011;8983;53.156;17.960;2023-02-15T07:37:25;56.20;;;27.10;;
17725;SDS011;8983;53.156;17.960;2023-02-15T07:39:54;48.67;;;24.20;;
17725;SDS011;8983;53.156;17.960;2023-02-15T07:42:23;45.67;;;23.33;;
17725;SDS011;8983;53.156;17.960;2023-02-15T07:44:51;46.77;;;25.10;;
17725;SDS011;8983;53.156;17.960;2023-02-15T07:47:19;49.07;;;24.47;;
17725;SDS011;8983;53.156;17.960;2023-02-15T07:49:47;51.47;;;25.17;;
17725;SDS011;8983;53.156;17.960;2023-02-15T07:52:15;47.77;;;24.20;;
17725;SDS011;8983;53.156;17.960;2023-02-15T07:54:43;52.63;;;25.73;;
17725;SDS011;8983;53.156;17.960;2023-02-15T07:57:11;52.03;;;24.70;;
17725;SDS011;8983;53.156;17.960;2023-02-15T07:59:40;49.00;;;24.27;;
17725;SDS011;8983;53.156;17.960;2023-02-15T08:02:09;55.13;;;24.77;;
17725;SDS011;8983;53.156;17.960;2023-02-15T08:04:38;55.33;;;24.50;;
17725;SDS011;8983;53.156;17.960;2023-02-15T08:07:06;59.33;;;28.33;;
17725;SDS011;8983;53.156;17.960;2023-02-15T08:09:35;52.73;;;26.60;;
17725;SDS011;8983;53.156;17.960;2023-02-15T08:12:03;49.90;;;26.60;;
17725;SDS011;8983;53.156;17.960;2023-02-15T08:14:31;58.67;;;28.43;;
17725;SDS011;8983;53.156;17.960;2023-02-15T08:17:01;62.47;;;29.77;;
17725;SDS011;8983;53.156;17.960;2023-02-15T08:19:31;54.47;;;27.73;;
17725;SDS011;8983;53.156;17.960;2023-02-15T08:22:01;64.03;;;29.40;;
17725;SDS011;8983;53.156;17.960;2023-02-15T08:24:31;53.13;;;26.43;;
17725;SDS011;8983;53.156;17.960;2023-02-15T08:27:00;52.00;;;27.50;;
17725;SDS011;8983;53.156;17.960;2023-02-15T08:29:31;62.03;;;29.87;;
17725;SDS011;8983;53.156;17.960;2023-02-15T08:32:03;56.07;;;28.30;;
17725;SDS011;8983;53.156;17.960;2023-02-15T08:34:33;62.83;;;29.50;;
17725;SDS011;8983;53.156;17.960;2023-02-15T08:37:02;58.90;;;27.10;;
17725;SDS011;8983;53.156;17.960;2023-02-15T08:39:32;58.83;;;28.07;;
17725;SDS011;8983;53.156;17.960;2023-02-15T08:42:00;58.27;;;26.63;;
17725;SDS011;8983;53.156;17.960;2023-02-15T08:44:28;50.63;;;26.03;;
17725;SDS011;8983;53.156;17.960;2023-02-15T08:46:56;48.80;;;24.70;;
17725;SDS011;8983;53.156;17.960;2023-02-15T08:49:30;46.73;;;22.67;;
17725;SDS011;8983;53.156;17.960;2023-02-15T08:51:58;40.73;;;20.77;;
17725;SDS011;8983;53.156;17.960;2023-02-15T08:54:26;39.73;;;23.17;;
17725;SDS011;8983;53.156;17.960;2023-02-15T08:56:54;38.60;;;20.80;;
17725;SDS011;8983;53.156;17.960;2023-02-15T08:59:22;47.30;;;22.47;;
17725;SDS011;8983;53.156;17.960;2023-02-15T09:01:53;42.00;;;22.10;;
17725;SDS011;8983;53.156;17.960;2023-02-15T09:04:21;48.27;;;23.20;;
17725;SDS011;8983;53.156;17.960;2023-02-15T09:06:51;42.40;;;23.27;;
17725;SDS011;8983;53.156;17.960;2023-02-15T09:09:19;40.43;;;22.03;;
17725;SDS011;8983;53.156;17.960;2023-02-15T09:11:48;34.67;;;20.50;;
17725;SDS011;8983;53.156;17.960;2023-02-15T09:14:23;27.93;;;15.23;;
17725;SDS011;8983;53.156;17.960;2023-02-15T09:16:52;36.80;;;20.40;;
17725;SDS011;8983;53.156;17.960;2023-02-15T09:19:21;29.90;;;16.70;;
17725;SDS011;8983;53.156;17.960;2023-02-15T09:21:52;31.87;;;17.70;;
17725;SDS011;8983;53.156;17.960;2023-02-15T09:24:20;32.83;;;18.40;;
17725;SDS011;8983;53.156;17.960;2023-02-15T09:26:49;26.20;;;15.10;;
17725;SDS011;8983;53.156;17.960;2023-02-15T09:29:17;31.50;;;17.07;;
17725;SDS011;8983;53.156;17.960;2023-02-15T09:31:47;33.43;;;17.83;;
17725;SDS011;8983;53.156;17.960;2023-02-15T09:34:17;30.33;;;16.67;;
17725;SDS011;8983;53.156;17.960;2023-02-15T09:36:46;27.50;;;16.67;;
17725;SDS011;8983;53.156;17.960;2023-02-15T09:39:17;26.83;;;14.00;;
17725;SDS011;8983;53.156;17.960;2023-02-15T09:42:10;26.53;;;13.93;;
17725;SDS011;8983;53.156;17.960;2023-02-15T09:45:02;30.33;;;15.93;;
17725;SDS011;8983;53.156;17.960;2023-02-15T09:50:50;29.30;;;15.00;;
17725;SDS011;8983;53.156;17.960;2023-02-15T09:53:41;28.97;;;15.67;;
17725;SDS011;8983;53.156;17.960;2023-02-15T09:56:33;24.17;;;13.70;;
17725;SDS011;8983;53.156;17.960;2023-02-15T09:59:08;21.27;;;13.17;;
17725;SDS011;8983;53.156;17.960;2023-02-15T10:01:43;22.03;;;13.40;;
17725;SDS011;8983;53.156;17.960;2023-02-15T10:04:24;21.43;;;13.37;;
17725;SDS011;8983;53.156;17.960;2023-02-15T10:07:05;20.07;;;12.07;;
17725;SDS011;8983;53.156;17.960;2023-02-15T10:09:49;16.37;;;8.77;;
17725;SDS011;8983;53.156;17.960;2023-02-15T10:12:35;16.63;;;10.67;;
17725;SDS011;8983;53.156;17.960;2023-02-15T10:15:25;15.17;;;8.63;;
17725;SDS011;8983;53.156;17.960;2023-02-15T10:18:05;21.57;;;11.97;;
17725;SDS011;8983;53.156;17.960;2023-02-15T10:20:43;27.43;;;13.67;;
17725;SDS011;8983;53.156;17.960;2023-02-15T10:23:23;23.50;;;14.13;;
17725;SDS011;8983;53.156;17.960;2023-02-15T10:26:07;21.97;;;13.03;;
17725;SDS011;8983;53.156;17.960;2023-02-15T10:28:45;27.53;;;15.33;;
17725;SDS011;8983;53.156;17.960;2023-02-15T10:31:19;24.87;;;15.63;;
17725;SDS011;8983;53.156;17.960;2023-02-15T10:33:55;23.30;;;12.70;;
17725;SDS011;8983;53.156;17.960;2023-02-15T10:36:46;27.80;;;16.47;;
17725;SDS011;8983;53.156;17.960;2023-02-15T10:39:25;31.00;;;15.80;;
17725;SDS011;8983;53.156;17.960;2023-02-15T10:42:02;30.10;;;15.87;;
17725;SDS011;8983;53.156;17.960;2023-02-15T10:44:43;26.87;;;17.37;;
17725;SDS011;8983;53.156;17.960;2023-02-15T10:47:31;25.57;;;16.33;;
17725;SDS011;8983;53.156;17.960;2023-02-15T10:50:22;26.80;;;16.90;;
17725;SDS011;8983;53.156;17.960;2023-02-15T10:53:05;31.27;;;18.27;;
17725;SDS011;8983;53.156;17.960;2023-02-15T10:55:47;27.50;;;16.40;;
17725;SDS011;8983;53.156;17.960;2023-02-15T10:58:26;34.03;;;18.60;;
17725;SDS011;8983;53.156;17.960;2023-02-15T11:01:03;31.97;;;17.93;;
17725;SDS011;8983;53.156;17.960;2023-02-15T11:03:45;28.67;;;16.87;;
17725;SDS011;8983;53.156;17.960;2023-02-15T11:06:26;36.50;;;18.83;;
17725;SDS011;8983;53.156;17.960;2023-02-15T11:08:56;36.60;;;21.60;;
17725;SDS011;8983;53.156;17.960;2023-02-15T11:11:27;35.37;;;20.20;;
17725;SDS011;8983;53.156;17.960;2023-02-15T11:13:57;37.93;;;19.53;;
17725;SDS011;8983;53.156;17.960;2023-02-15T11:16:30;35.07;;;17.60;;
17725;SDS011;8983;53.156;17.960;2023-02-15T11:19:03;30.87;;;17.73;;
17725;SDS011;8983;53.156;17.960;2023-02-15T11:21:36;45.23;;;24.20;;
17725;SDS011;8983;53.156;17.960;2023-02-15T11:24:09;41.30;;;24.07;;
17725;SDS011;8983;53.156;17.960;2023-02-15T11:26:40;38.17;;;21.23;;
17725;SDS011;8983;53.156;17.960;2023-02-15T11:29:12;39.80;;;18.53;;
17725;SDS011;8983;53.156;17.960;2023-02-15T11:31:47;48.43;;;23.60;;
17725;SDS011;8983;53.156;17.960;2023-02-15T11:34:22;42.03;;;21.47;;
17725;SDS011;8983;53.156;17.960;2023-02-15T11:36:54;32.03;;;16.77;;
17725;SDS011;8983;53.156;17.960;2023-02-15T11:39:25;40.77;;;21.77;;
17725;SDS011;8983;53.156;17.960;2023-02-15T11:41:59;40.50;;;22.93;;
17725;SDS011;8983;53.156;17.960;2023-02-15T11:44:30;41.50;;;20.67;;
17725;SDS011;8983;53.156;17.960;2023-02-15T11:47:02;40.67;;;23.17;;
17725;SDS011;8983;53.156;17.960;2023-02-15T11:49:35;32.30;;;18.90;;
17725;SDS011;8983;53.156;17.960;2023-02-15T11:52:04;41.33;;;22.67;;
17725;SDS011;8983;53.156;17.960;2023-02-15T11:54:35;35.87;;;19.23;;
17725;SDS011;8983;53.156;17.960;2023-02-15T11:57:21;41.20;;;22.07;;
17725;SDS011;8983;53.156;17.960;2023-02-15T11:59:56;36.90;;;18.63;;
17725;SDS011;8983;53.156;17.960;2023-02-15T12:02:31;41.73;;;22.47;;
17725;SDS011;8983;53.156;17.960;2023-02-15T12:05:03;43.43;;;23.07;;
17725;SDS011;8983;53.156;17.960;2023-02-15T12:07:36;46.60;;;24.00;;
17725;SDS011;8983;53.156;17.960;2023-02-15T12:10:13;47.10;;;25.53;;
17725;SDS011;8983;53.156;17.960;2023-02-15T12:12:46;39.23;;;19.13;;
17725;SDS011;8983;53.156;17.960;2023-02-15T12:15:14;44.43;;;23.73;;
17725;SDS011;8983;53.156;17.960;2023-02-15T12:17:58;32.07;;;16.43;;
17725;SDS011;8983;53.156;17.960;2023-02-15T12:20:28;41.63;;;23.50;;
17725;SDS011;8983;53.156;17.960;2023-02-15T12:22:59;42.80;;;24.53;;
17725;SDS011;8983;53.156;17.960;2023-02-15T12:25:32;42.83;;;23.23;;
17725;SDS011;8983;53.156;17.960;2023-02-15T12:28:03;43.33;;;21.37;;
17725;SDS011;8983;53.156;17.960;2023-02-15T12:30:43;38.23;;;17.27;;
17725;SDS011;8983;53.156;17.960;2023-02-15T12:33:15;35.67;;;18.60;;
17725;SDS011;8983;53.156;17.960;2023-02-15T12:35:54;43.00;;;20.70;;
17725;SDS011;8983;53.156;17.960;2023-02-15T12:38:27;40.87;;;21.73;;
17725;SDS011;8983;53.156;17.960;2023-02-15T12:40:57;41.07;;;22.23;;
17725;SDS011;8983;53.156;17.960;2023-02-15T12:43:27;45.50;;;23.00;;
17725;SDS011;8983;53.156;17.960;2023-02-15T12:46:12;46.00;;;23.87;;
17725;SDS011;8983;53.156;17.960;2023-02-15T12:51:44;45.53;;;22.83;;
17725;SDS011;8983;53.156;17.960;2023-02-15T12:57:14;83.23;;;41.07;;
17725;SDS011;8983;53.156;17.960;2023-02-15T12:59:53;47.27;;;25.47;;
17725;SDS011;8983;53.156;17.960;2023-02-15T13:02:24;51.87;;;27.10;;
17725;SDS011;8983;53.156;17.960;2023-02-15T13:05:03;53.73;;;26.80;;
17725;SDS011;8983;53.156;17.960;2023-02-15T13:07:43;55.43;;;28.30;;
17725;SDS011;8983;53.156;17.960;2023-02-15T13:12:50;53.43;;;26.93;;
17725;SDS011;8983;53.156;17.960;2023-02-15T13:15:25;45.67;;;24.97;;
17725;SDS011;8983;53.156;17.960;2023-02-15T13:18:00;52.07;;;25.40;;
17725;SDS011;8983;53.156;17.960;2023-02-15T13:20:29;41.53;;;21.40;;
17725;SDS011;8983;53.156;17.960;2023-02-15T13:23:00;51.93;;;25.87;;
17725;SDS011;8983;53.156;17.960;2023-02-15T13:25:32;53.20;;;26.83;;
17725;SDS011;8983;53.156;17.960;2023-02-15T13:28:10;43.90;;;22.37;;
17725;SDS011;8983;53.156;17.960;2023-02-15T13:30:42;53.27;;;25.13;;
17725;SDS011;8983;53.156;17.960;2023-02-15T13:33:14;40.27;;;21.30;;
17725;SDS011;8983;53.156;17.960;2023-02-15T13:35:49;45.77;;;25.03;;
17725;SDS011;8983;53.156;17.960;2023-02-15T13:38:31;54.00;;;25.93;;
17725;SDS011;8983;53.156;17.960;2023-02-15T13:41:14;54.07;;;26.33;;
17725;SDS011;8983;53.156;17.960;2023-02-15T13:43:50;51.63;;;24.47;;
17725;SDS011;8983;53.156;17.960;2023-02-15T13:46:36;48.00;;;24.17;;
17725;SDS011;8983;53.156;17.960;2023-02-15T13:49:16;52.33;;;25.83;;
17725;SDS011;8983;53.156;17.960;2023-02-15T13:51:53;52.90;;;25.37;;
17725;SDS011;8983;53.156;17.960;2023-02-15T13:54:31;51.83;;;26.10;;
17725;SDS011;8983;53.156;17.960;2023-02-15T13:57:16;52.87;;;27.13;;
17725;SDS011;8983;53.156;17.960;2023-02-15T13:59:57;55.47;;;27.27;;
17725;SDS011;8983;53.156;17.960;2023-02-15T14:02:36;48.57;;;25.17;;
17725;SDS011;8983;53.156;17.960;2023-02-15T14:05:26;57.57;;;26.93;;
17725;SDS011;8983;53.156;17.960;2023-02-15T14:08:04;51.83;;;27.23;;
17725;SDS011;8983;53.156;17.960;2023-02-15T14:10:43;51.70;;;26.90;;
17725;SDS011;8983;53.156;17.960;2023-02-15T14:13:24;56.40;;;26.73;;
17725;SDS011;8983;53.156;17.960;2023-02-15T14:16:16;59.80;;;27.03;;
17725;SDS011;8983;53.156;17.960;2023-02-15T14:18:54;59.80;;;28.07;;
17725;SDS011;8983;53.156;17.960;2023-02-15T14:21:27;52.83;;;25.17;;
17725;SDS011;8983;53.156;17.960;2023-02-15T14:24:02;55.37;;;27.30;;
17725;SDS011;8983;53.156;17.960;2023-02-15T14:26:42;64.83;;;30.43;;
17725;SDS011;8983;53.156;17.960;2023-02-15T14:29:20;67.30;;;29.47;;
17725;SDS011;8983;53.156;17.960;2023-02-15T14:31:57;68.13;;;31.57;;
17725;SDS011;8983;53.156;17.960;2023-02-15T14:34:31;60.50;;;28.33;;
17725;SDS011;8983;53.156;17.960;2023-02-15T14:37:09;58.37;;;28.30;;
17725;SDS011;8983;53.156;17.960;2023-02-15T14:39:42;59.43;;;27.17;;
17725;SDS011;8983;53.156;17.960;2023-02-15T14:42:36;58.63;;;28.37;;
17725;SDS011;8983;53.156;17.960;2023-02-15T14:45:14;43.37;;;21.87;;
17725;SDS011;8983;53.156;17.960;2023-02-15T14:47:48;62.30;;;27.77;;
17725;SDS011;8983;53.156;17.960;2023-02-15T14:50:39;68.03;;;29.63;;
17725;SDS011;8983;53.156;17.960;2023-02-15T14:53:18;57.13;;;23.67;;
17725;SDS011;8983;53.156;17.960;2023-02-15T14:56:05;59.23;;;26.07;;
17725;SDS011;8983;53.156;17.960;2023-02-15T14:58:55;60.87;;;27.60;;
17725;SDS011;8983;53.156;17.960;2023-02-15T15:01:25;59.77;;;24.80;;
17725;SDS011;8983;53.156;17.960;2023-02-15T15:03:56;63.07;;;28.37;;
17725;SDS011;8983;53.156;17.960;2023-02-15T15:06:27;76.27;;;35.87;;
17725;SDS011;8983;53.156;17.960;2023-02-15T15:08:58;50.23;;;21.77;;